sensor_id;sensor_type;location;lat;lon;timestamp;P1;durP1;ratioP1;P2;durP2;ratioP2
3667;SDS011;24099;47.102;15.440;2023-01-04T00:00:00;2.17;;;1.63;;
3667;SDS011;24099;47.102;15.440;2023-01-04T00:02:30;2.38;;;2.10;;
3667;SDS011;24099;47.102;15.440;2023-01-04T00:04:59;1.70;;;1.30;;
3667;SDS011;24099;47.102;15.440;2023-01-04T00:07:27;2.83;;;1.42;;
3667;SDS011;24099;47.102;15.440;2023-01-04T00:09:58;1.70;;;1.38;;
3667;SDS011;24099;47.102;15.440;2023-01-04T00:12:33;2.85;;;2.08;;
3667;SDS011;24099;47.102;15.440;2023-01-04T00:15:01;4.65;;;1.95;;
3667;SDS011;24099;47.102;15.440;2023-01-04T00:17:32;1.40;;;1.08;;
3667;SDS011;24099;47.102;15.440;2023-01-04T00:20:01;5.55;;;2.60;;
3667;SDS011;24099;47.102;15.440;2023-01-04T00:22:32;1.42;;;1.30;;
3667;SDS011;24099;47.102;15.440;2023-01-04T00:25:00;2.83;;;1.48;;
3667;SDS011;24099;47.102;15.440;2023-01-04T00:27:28;5.13;;;1.83;;
3667;SDS011;24099;47.102;15.440;2023-01-04T00:29:56;5.47;;;2.15;;
3667;SDS011;24099;47.102;15.440;2023-01-04T00:32:23;3.00;;;2.10;;
3667;SDS011;24099;47.102;15.440;2023-01-04T00:34:51;3.53;;;1.65;;
3667;SDS011;24099;47.102;15.440;2023-01-04T00:37:20;4.28;;;1.83;;
3667;SDS011;24099;47.102;15.440;2023-01-04T00:39:48;5.07;;;2.70;;
3667;SDS011;24099;47.102;15.440;2023-01-04T00:42:15;4.25;;;2.35;;
3667;SDS011;24099;47.102;15.440;2023-01-04T00:44:43;4.75;;;1.77;;
3667;SDS011;24099;47.102;15.440;2023-01-04T00:47:11;6.47;;;2.42;;
3667;SDS011;24099;47.102;15.440;2023-01-04T00:49:38;3.08;;;2.40;;
3667;SDS011;24099;47.102;15.440;2023-01-04T00:52:06;3.50;;;1.67;;
3667;SDS011;24099;47.102;15.440;2023-01-04T00:54:35;5.00;;;2.00;;
3667;SDS011;24099;47.102;15.440;2023-01-04T00:57:03;5.57;;;2.38;;
3667;SDS011;24099;47.102;15.440;2023-01-04T00:59:32;2.75;;;1.88;;
3667;SDS011;24099;47.102;15.440;2023-01-04T01:01:59;3.58;;;1.92;;
3667;SDS011;24099;47.102;15.440;2023-01-04T01:04:27;3.45;;;2.40;;
3667;SDS011;24099;47.102;15.440;2023-01-04T01:06:55;3.13;;;1.98;;
3667;SDS011;24099;47.102;15.440;2023-01-04T01:09:22;3.97;;;2.65;;
3667;SDS011;24099;47.102;15.440;2023-01-04T01:11:52;5.90;;;2.10;;
3667;SDS011;24099;47.102;15.440;2023-01-04T01:14:20;2.60;;;2.22;;
3667;SDS011;24099;47.102;15.440;2023-01-04T01:16:49;3.63;;;1.95;;
3667;SDS011;24099;47.102;15.440;2023-01-04T01:19:17;1.95;;;1.33;;
3667;SDS011;24099;47.102;15.440;2023-01-04T01:21:44;4.57;;;3.33;;
3667;SDS011;24099;47.102;15.440;2023-01-04T01:24:13;3.97;;;2.45;;
3667;SDS011;24099;47.102;15.440;2023-01-04T01:26:42;4.40;;;2.03;;
3667;SDS011;24099;47.102;15.440;2023-01-04T01:29:11;2.70;;;1.83;;
3667;SDS011;24099;47.102;15.440;2023-01-04T01:31:39;15.32;;;2.28;;
3667;SDS011;24099;47.102;15.440;2023-01-04T01:34:07;3.63;;;2.10;;
3667;SDS011;24099;47.102;15.440;2023-01-04T01:36:35;4.20;;;1.80;;
3667;SDS011;24099;47.102;15.440;2023-01-04T01:39:03;3.42;;;1.75;;
3667;SDS011;24099;47.102;15.440;2023-01-04T01:41:31;3.55;;;2.42;;
3667;SDS011;24099;47.102;15.440;2023-01-04T01:44:00;7.10;;;3.08;;
3667;SDS011;24099;47.102;15.440;2023-01-04T01:46:33;4.07;;;2.08;;
3667;SDS011;24099;47.102;15.440;2023-01-04T01:49:04;4.57;;;2.25;;
3667;SDS011;24099;47.102;15.440;2023-01-04T01:51:38;3.47;;;2.17;;
3667;SDS011;24099;47.102;15.440;2023-01-04T01:54:07;6.47;;;1.98;;
3667;SDS011;24099;47.102;15.440;2023-01-04T01:56:39;4.05;;;1.92;;
3667;SDS011;24099;47.102;15.440;2023-01-04T01:59:11;1.60;;;1.48;;
3667;SDS011;24099;47.102;15.440;2023-01-04T02:01:42;3.78;;;1.95;;
3667;SDS011;24099;47.102;15.440;2023-01-04T02:04:10;2.60;;;2.00;;
3667;SDS011;24099;47.102;15.440;2023-01-04T02:06:40;5.30;;;2.20;;
3667;SDS011;24099;47.102;15.440;2023-01-04T02:09:12;1.88;;;1.50;;
3667;SDS011;24099;47.102;15.440;2023-01-04T02:11:41;2.00;;;1.52;;
3667;SDS011;24099;47.102;15.440;2023-01-04T02:14:09;1.77;;;1.35;;
3667;SDS011;24099;47.102;15.440;2023-01-04T02:16:59;5.43;;;2.28;;
3667;SDS011;24099;47.102;15.440;2023-01-04T02:25:34;2.40;;;1.38;;
3667;SDS011;24099;47.102;15.440;2023-01-04T02:28:25;6.05;;;2.65;;
3667;SDS011;24099;47.102;15.440;2023-01-04T02:31:15;3.53;;;2.38;;
3667;SDS011;24099;47.102;15.440;2023-01-04T02:33:54;1.98;;;1.83;;
3667;SDS011;24099;47.102;15.440;2023-01-04T02:36:30;3.95;;;2.13;;
3667;SDS011;24099;47.102;15.440;2023-01-04T02:39:08;4.63;;;2.28;;
3667;SDS011;24099;47.102;15.440;2023-01-04T02:41:43;7.00;;;2.08;;
3667;SDS011;24099;47.102;15.440;2023-01-04T02:44:16;3.95;;;2.53;;
3667;SDS011;24099;47.102;15.440;2023-01-04T02:47:09;2.15;;;1.88;;
3667;SDS011;24099;47.102;15.440;2023-01-04T02:49:40;3.33;;;2.08;;
3667;SDS011;24099;47.102;15.440;2023-01-04T02:52:25;4.05;;;2.47;;
3667;SDS011;24099;47.102;15.440;2023-01-04T02:54:54;3.60;;;2.63;;
3667;SDS011;24099;47.102;15.440;2023-01-04T02:57:24;4.90;;;2.47;;
3667;SDS011;24099;47.102;15.440;2023-01-04T03:03:29;4.28;;;2.10;;
3667;SDS011;24099;47.102;15.440;2023-01-04T03:06:22;5.53;;;1.90;;
3667;SDS011;24099;47.102;15.440;2023-01-04T03:08:56;6.57;;;2.53;;
3667;SDS011;24099;47.102;15.440;2023-01-04T03:11:30;3.78;;;2.15;;
3667;SDS011;24099;47.102;15.440;2023-01-04T03:14:22;3.63;;;2.30;;
3667;SDS011;24099;47.102;15.440;2023-01-04T03:16:53;4.65;;;2.10;;
3667;SDS011;24099;47.102;15.440;2023-01-04T03:19:23;4.15;;;1.45;;
3667;SDS011;24099;47.102;15.440;2023-01-04T03:22:06;2.70;;;2.13;;
3667;SDS011;24099;47.102;15.440;2023-01-04T03:24:58;2.90;;;1.73;;
3667;SDS011;24099;47.102;15.440;2023-01-04T03:27:45;2.08;;;1.88;;
3667;SDS011;24099;47.102;15.440;2023-01-04T03:30:33;2.28;;;1.88;;
3667;SDS011;24099;47.102;15.440;2023-01-04T03:33:22;4.05;;;2.20;;
3667;SDS011;24099;47.102;15.440;2023-01-04T03:36:11;4.40;;;2.17;;
3667;SDS011;24099;47.102;15.440;2023-01-04T03:38:51;2.97;;;1.88;;
3667;SDS011;24099;47.102;15.440;2023-01-04T03:41:43;3.75;;;2.35;;
3667;SDS011;24099;47.102;15.440;2023-01-04T03:44:32;1.73;;;1.60;;
3667;SDS011;24099;47.102;15.440;2023-01-04T03:47:23;3.95;;;2.40;;
3667;SDS011;24099;47.102;15.440;2023-01-04T03:50:14;3.53;;;2.50;;
3667;SDS011;24099;47.102;15.440;2023-01-04T03:52:49;3.38;;;2.17;;
3667;SDS011;24099;47.102;15.440;2023-01-04T03:55:19;4.32;;;1.58;;
3667;SDS011;24099;47.102;15.440;2023-01-04T03:57:49;3.45;;;2.35;;
3667;SDS011;24099;47.102;15.440;2023-01-04T04:00:18;4.10;;;3.08;;
3667;SDS011;24099;47.102;15.440;2023-01-04T04:02:48;4.10;;;1.88;;
3667;SDS011;24099;47.102;15.440;2023-01-04T04:05:17;2.28;;;1.70;;
3667;SDS011;24099;47.102;15.440;2023-01-04T04:08:05;4.00;;;2.22;;
3667;SDS011;24099;47.102;15.440;2023-01-04T04:10:50;5.68;;;1.73;;
3667;SDS011;24099;47.102;15.440;2023-01-04T04:13:18;3.05;;;1.13;;
3667;SDS011;24099;47.102;15.440;2023-01-04T04:15:46;3.67;;;1.50;;
3667;SDS011;24099;47.102;15.440;2023-01-04T04:18:14;4.47;;;2.10;;
3667;SDS011;24099;47.102;15.440;2023-01-04T04:20:42;4.13;;;2.75;;
3667;SDS011;24099;47.102;15.440;2023-01-04T04:23:11;2.50;;;1.70;;
3667;SDS011;24099;47.102;15.440;2023-01-04T04:25:41;5.50;;;1.65;;
3667;SDS011;24099;47.102;15.440;2023-01-04T04:28:08;2.13;;;1.65;;
3667;SDS011;24099;47.102;15.440;2023-01-04T04:30:36;6.97;;;2.35;;
3667;SDS011;24099;47.102;15.440;2023-01-04T04:33:04;3.15;;;1.90;;
3667;SDS011;24099;47.102;15.440;2023-01-04T04:35:32;7.15;;;1.70;;
3667;SDS011;24099;47.102;15.440;2023-01-04T04:38:00;5.38;;;2.40;;
3667;SDS011;24099;47.102;15.440;2023-01-04T04:40:29;2.70;;;1.83;;
3667;SDS011;24099;47.102;15.440;2023-01-04T04:43:14;4.18;;;1.85;;
3667;SDS011;24099;47.102;15.440;2023-01-04T04:45:42;2.08;;;1.77;;
3667;SDS011;24099;47.102;15.440;2023-01-04T04:48:09;5.53;;;1.92;;
3667;SDS011;24099;47.102;15.440;2023-01-04T04:50:37;2.20;;;2.00;;
3667;SDS011;24099;47.102;15.440;2023-01-04T04:53:05;8.13;;;2.13;;
3667;SDS011;24099;47.102;15.440;2023-01-04T04:55:33;4.93;;;2.15;;
3667;SDS011;24099;47.102;15.440;2023-01-04T04:58:01;3.45;;;2.33;;
3667;SDS011;24099;47.102;15.440;2023-01-04T05:00:29;2.40;;;1.50;;
3667;SDS011;24099;47.102;15.440;2023-01-04T05:02:57;4.82;;;2.00;;
3667;SDS011;24099;47.102;15.440;2023-01-04T05:05:25;3.90;;;2.10;;
3667;SDS011;24099;47.102;15.440;2023-01-04T05:07:53;2.05;;;1.40;;
3667;SDS011;24099;47.102;15.440;2023-01-04T05:10:21;2.95;;;2.03;;
3667;SDS011;24099;47.102;15.440;2023-01-04T05:12:50;4.05;;;1.58;;
3667;SDS011;24099;47.102;15.440;2023-01-04T05:15:26;4.15;;;2.08;;
3667;SDS011;24099;47.102;15.440;2023-01-04T05:17:55;3.40;;;2.38;;
3667;SDS011;24099;47.102;15.440;2023-01-04T05:20:23;5.55;;;2.40;;
3667;SDS011;24099;47.102;15.440;2023-01-04T05:22:51;4.30;;;2.20;;
3667;SDS011;24099;47.102;15.440;2023-01-04T05:25:18;2.95;;;1.52;;
3667;SDS011;24099;47.102;15.440;2023-01-04T05:27:46;3.55;;;1.77;;
3667;SDS011;24099;47.102;15.440;2023-01-04T05:30:15;3.10;;;1.98;;
3667;SDS011;24099;47.102;15.440;2023-01-04T05:33:02;10.63;;;1.45;;
3667;SDS011;24099;47.102;15.440;2023-01-04T05:35:30;2.22;;;1.77;;
3667;SDS011;24099;47.102;15.440;2023-01-04T05:37:58;2.47;;;1.50;;
3667;SDS011;24099;47.102;15.440;2023-01-04T05:40:25;1.50;;;1.35;;
3667;SDS011;24099;47.102;15.440;2023-01-04T05:42:53;5.63;;;1.10;;
3667;SDS011;24099;47.102;15.440;2023-01-04T05:45:22;2.35;;;1.55;;
3667;SDS011;24099;47.102;15.440;2023-01-04T05:47:51;4.43;;;2.13;;
3667;SDS011;24099;47.102;15.440;2023-01-04T05:50:20;2.55;;;1.27;;
3667;SDS011;24099;47.102;15.440;2023-01-04T05:52:49;2.25;;;1.58;;
3667;SDS011;24099;47.102;15.440;2023-01-04T05:55:17;2.72;;;1.63;;
3667;SDS011;24099;47.102;15.440;2023-01-04T05:57:45;2.15;;;1.63;;
3667;SDS011;24099;47.102;15.440;2023-01-04T06:00:14;2.00;;;1.10;;
3667;SDS011;24099;47.102;15.440;2023-01-04T06:02:43;4.18;;;2.13;;
3667;SDS011;24099;47.102;15.440;2023-01-04T06:05:11;4.30;;;1.48;;
3667;SDS011;24099;47.102;15.440;2023-01-04T06:07:39;3.28;;;2.08;;
3667;SDS011;24099;47.102;15.440;2023-01-04T06:10:08;2.90;;;2.15;;
3667;SDS011;24099;47.102;15.440;2023-01-04T06:12:37;2.33;;;1.42;;
3667;SDS011;24099;47.102;15.440;2023-01-04T06:15:07;3.88;;;2.08;;
3667;SDS011;24099;47.102;15.440;2023-01-04T06:17:36;5.90;;;1.92;;
3667;SDS011;24099;47.102;15.440;2023-01-04T06:20:06;2.55;;;1.50;;
3667;SDS011;24099;47.102;15.440;2023-01-04T06:22:36;3.22;;;1.77;;
3667;SDS011;24099;47.102;15.440;2023-01-04T06:25:06;1.67;;;1.42;;
3667;SDS011;24099;47.102;15.440;2023-01-04T06:27:34;2.35;;;1.58;;
3667;SDS011;24099;47.102;15.440;2023-01-04T06:30:02;1.52;;;1.42;;
3667;SDS011;24099;47.102;15.440;2023-01-04T06:32:31;3.10;;;1.67;;
3667;SDS011;24099;47.102;15.440;2023-01-04T06:34:59;4.43;;;2.03;;
3667;SDS011;24099;47.102;15.440;2023-01-04T06:37:28;6.00;;;2.35;;
3667;SDS011;24099;47.102;15.440;2023-01-04T06:39:56;1.92;;;1.48;;
3667;SDS011;24099;47.102;15.440;2023-01-04T06:42:23;1.95;;;1.40;;
3667;SDS011;24099;47.102;15.440;2023-01-04T06:45:14;4.85;;;2.45;;
3667;SDS011;24099;47.102;15.440;2023-01-04T06:47:41;1.83;;;1.50;;
3667;SDS011;24099;47.102;15.440;2023-01-04T06:50:12;2.97;;;2.05;;
3667;SDS011;24099;47.102;15.440;2023-01-04T06:52:42;2.15;;;1.63;;
3667;SDS011;24099;47.102;15.440;2023-01-04T06:55:09;1.65;;;1.38;;
3667;SDS011;24099;47.102;15.440;2023-01-04T06:57:37;4.07;;;2.00;;
3667;SDS011;24099;47.102;15.440;2023-01-04T07:00:05;1.05;;;1.00;;
3667;SDS011;24099;47.102;15.440;2023-01-04T07:02:35;3.05;;;1.10;;
3667;SDS011;24099;47.102;15.440;2023-01-04T07:05:03;1.42;;;1.33;;
3667;SDS011;24099;47.102;15.440;2023-01-04T07:07:31;2.72;;;1.75;;
3667;SDS011;24099;47.102;15.440;2023-01-04T07:10:01;2.78;;;1.70;;
3667;SDS011;24099;47.102;15.440;2023-01-04T07:12:29;3.22;;;1.15;;
3667;SDS011;24099;47.102;15.440;2023-01-04T07:14:57;1.40;;;1.25;;
3667;SDS011;24099;47.102;15.440;2023-01-04T07:17:25;2.33;;;1.05;;
3667;SDS011;24099;47.102;15.440;2023-01-04T07:19:52;2.92;;;1.60;;
3667;SDS011;24099;47.102;15.440;2023-01-04T07:22:20;1.80;;;1.42;;
3667;SDS011;24099;47.102;15.440;2023-01-04T07:24:48;1.02;;;0.98;;
3667;SDS011;24099;47.102;15.440;2023-01-04T07:27:17;2.47;;;1.63;;
3667;SDS011;24099;47.102;15.440;2023-01-04T07:29:44;1.92;;;1.13;;
3667;SDS011;24099;47.102;15.440;2023-01-04T07:32:12;3.95;;;1.95;;
3667;SDS011;24099;47.102;15.440;2023-01-04T07:34:39;2.30;;;1.42;;
3667;SDS011;24099;47.102;15.440;2023-01-04T07:37:08;5.53;;;1.98;;
3667;SDS011;24099;47.102;15.440;2023-01-04T07:39:36;1.70;;;1.30;;
3667;SDS011;24099;47.102;15.440;2023-01-04T07:42:04;2.17;;;1.67;;
3667;SDS011;24099;47.102;15.440;2023-01-04T07:44:33;7.43;;;2.35;;
3667;SDS011;24099;47.102;15.440;2023-01-04T07:47:00;4.63;;;2.83;;
3667;SDS011;24099;47.102;15.440;2023-01-04T07:49:28;6.53;;;1.88;;
3667;SDS011;24099;47.102;15.440;2023-01-04T07:51:56;1.42;;;1.25;;
3667;SDS011;24099;47.102;15.440;2023-01-04T07:54:24;5.30;;;1.90;;
3667;SDS011;24099;47.102;15.440;2023-01-04T07:56:51;4.82;;;2.92;;
3667;SDS011;24099;47.102;15.440;2023-01-04T07:59:19;3.88;;;2.33;;
3667;SDS011;24099;47.102;15.440;2023-01-04T08:01:49;4.07;;;2.67;;
3667;SDS011;24099;47.102;15.440;2023-01-04T08:04:17;3.15;;;2.22;;
3667;SDS011;24099;47.102;15.440;2023-01-04T08:06:48;5.32;;;2.92;;
3667;SDS011;24099;47.102;15.440;2023-01-04T08:09:16;1.98;;;1.77;;
3667;SDS011;24099;47.102;15.440;2023-01-04T08:11:44;3.15;;;2.10;;
3667;SDS011;24099;47.102;15.440;2023-01-04T08:14:12;3.80;;;1.70;;
3667;SDS011;24099;47.102;15.440;2023-01-04T08:16:40;3.20;;;2.10;;
3667;SDS011;24099;47.102;15.440;2023-01-04T08:19:13;5.00;;;2.53;;
3667;SDS011;24099;47.102;15.440;2023-01-04T08:21:42;3.15;;;1.85;;
3667;SDS011;24099;47.102;15.440;2023-01-04T08:24:10;2.92;;;1.95;;
3667;SDS011;24099;47.102;15.440;2023-01-04T08:26:39;3.22;;;1.75;;
3667;SDS011;24099;47.102;15.440;2023-01-04T08:29:07;4.90;;;2.28;;
3667;SDS011;24099;47.102;15.440;2023-01-04T08:31:35;6.38;;;1.92;;
3667;SDS011;24099;47.102;15.440;2023-01-04T08:34:05;2.40;;;1.50;;
3667;SDS011;24099;47.102;15.440;2023-01-04T08:36:43;2.17;;;1.73;;
3667;SDS011;24099;47.102;15.440;2023-01-04T08:39:13;2.40;;;1.58;;
3667;SDS011;24099;47.102;15.440;2023-01-04T08:41:41;6.22;;;2.17;;
3667;SDS011;24099;47.102;15.440;2023-01-04T08:44:18;1.83;;;1.52;;
3667;SDS011;24099;47.102;15.440;2023-01-04T08:46:47;4.70;;;1.65;;
3667;SDS011;24099;47.102;15.440;2023-01-04T08:49:15;2.83;;;1.55;;
3667;SDS011;24099;47.102;15.440;2023-01-04T08:51:45;2.78;;;2.10;;
3667;SDS011;24099;47.102;15.440;2023-01-04T08:54:13;9.43;;;1.75;;
3667;SDS011;24099;47.102;15.440;2023-01-04T08:56:41;1.83;;;1.67;;
3667;SDS011;24099;47.102;15.440;2023-01-04T08:59:09;2.95;;;1.38;;
3667;SDS011;24099;47.102;15.440;2023-01-04T09:01:37;2.55;;;1.67;;
3667;SDS011;24099;47.102;15.440;2023-01-04T09:04:06;2.63;;;2.25;;
3667;SDS011;24099;47.102;15.440;2023-01-04T09:06:33;2.38;;;2.13;;
3667;SDS011;24099;47.102;15.440;2023-01-04T09:09:03;3.67;;;1.80;;
3667;SDS011;24099;47.102;15.440;2023-01-04T09:11:30;3.95;;;1.92;;
3667;SDS011;24099;47.102;15.440;2023-01-04T09:13:59;2.60;;;2.08;;
3667;SDS011;24099;47.102;15.440;2023-01-04T09:16:28;5.50;;;1.70;;
3667;SDS011;24099;47.102;15.440;2023-01-04T09:18:55;5.43;;;2.38;;
3667;SDS011;24099;47.102;15.440;2023-01-04T09:21:23;2.63;;;1.48;;
3667;SDS011;24099;47.102;15.440;2023-01-04T09:23:51;3.70;;;2.53;;
3667;SDS011;24099;47.102;15.440;2023-01-04T09:26:20;2.88;;;1.67;;
3667;SDS011;24099;47.102;15.440;2023-01-04T09:28:48;3.17;;;1.77;;
3667;SDS011;24099;47.102;15.440;2023-01-04T09:31:18;5.03;;;2.60;;
3667;SDS011;24099;47.102;15.440;2023-01-04T09:33:47;4.57;;;2.10;;
3667;SDS011;24099;47.102;15.440;2023-01-04T09:36:15;3.97;;;2.55;;
3667;SDS011;24099;47.102;15.440;2023-01-04T09:38:44;4.07;;;2.35;;
3667;SDS011;24099;47.102;15.440;2023-01-04T09:41:17;5.25;;;2.53;;
3667;SDS011;24099;47.102;15.440;2023-01-04T09:43:50;2.45;;;2.22;;
3667;SDS011;24099;47.102;15.440;2023-01-04T09:46:22;4.57;;;2.10;;
3667;SDS011;24099;47.102;15.440;2023-01-04T09:51:31;7.07;;;3.22;;
3667;SDS011;24099;47.102;15.440;2023-01-04T09:54:03;5.00;;;3.25;;
3667;SDS011;24099;47.102;15.440;2023-01-04T09:56:39;8.48;;;3.80;;
3667;SDS011;24099;47.102;15.440;2023-01-04T09:59:10;9.82;;;3.33;;
3667;SDS011;24099;47.102;15.440;2023-01-04T10:01:42;5.80;;;2.72;;
3667;SDS011;24099;47.102;15.440;2023-01-04T10:04:15;7.50;;;3.83;;
3667;SDS011;24099;47.102;15.440;2023-01-04T10:06:48;5.20;;;2.55;;
3667;SDS011;24099;47.102;15.440;2023-01-04T10:09:17;4.63;;;2.72;;
3667;SDS011;24099;47.102;15.440;2023-01-04T10:11:52;4.50;;;2.55;;
3667;SDS011;24099;47.102;15.440;2023-01-04T10:14:42;2.53;;;2.15;;
3667;SDS011;24099;47.102;15.440;2023-01-04T10:17:23;6.50;;;3.80;;
3667;SDS011;24099;47.102;15.440;2023-01-04T10:20:02;2.63;;;2.05;;
3667;SDS011;24099;47.102;15.440;2023-01-04T10:22:44;3.72;;;2.88;;
3667;SDS011;24099;47.102;15.440;2023-01-04T10:25:22;7.80;;;3.15;;
3667;SDS011;24099;47.102;15.440;2023-01-04T10:28:09;8.30;;;4.57;;
3667;SDS011;24099;47.102;15.440;2023-01-04T10:30:46;9.75;;;5.07;;
3667;SDS011;24099;47.102;15.440;2023-01-04T10:33:27;6.38;;;2.97;;
3667;SDS011;24099;47.102;15.440;2023-01-04T10:35:59;5.47;;;3.63;;
3667;SDS011;24099;47.102;15.440;2023-01-04T10:38:27;6.88;;;3.45;;
3667;SDS011;24099;47.102;15.440;2023-01-04T10:41:01;8.15;;;3.95;;
3667;SDS011;24099;47.102;15.440;2023-01-04T10:43:38;9.90;;;3.72;;
3667;SDS011;24099;47.102;15.440;2023-01-04T10:48:45;6.18;;;3.55;;
3667;SDS011;24099;47.102;15.440;2023-01-04T10:51:19;5.88;;;3.97;;
3667;SDS011;24099;47.102;15.440;2023-01-04T10:53:54;8.70;;;3.38;;
3667;SDS011;24099;47.102;15.440;2023-01-04T10:56:24;6.30;;;3.38;;
3667;SDS011;24099;47.102;15.440;2023-01-04T10:59:00;6.45;;;2.83;;
3667;SDS011;24099;47.102;15.440;2023-01-04T11:01:34;12.85;;;4.45;;
3667;SDS011;24099;47.102;15.440;2023-01-04T11:04:08;6.97;;;3.60;;
3667;SDS011;24099;47.102;15.440;2023-01-04T11:06:43;7.57;;;3.75;;
3667;SDS011;24099;47.102;15.440;2023-01-04T11:09:15;10.45;;;4.00;;
3667;SDS011;24099;47.102;15.440;2023-01-04T11:11:47;9.88;;;3.95;;
3667;SDS011;24099;47.102;15.440;2023-01-04T11:14:16;5.32;;;3.28;;
3667;SDS011;24099;47.102;15.440;2023-01-04T11:16:45;8.25;;;3.47;;
3667;SDS011;24099;47.102;15.440;2023-01-04T11:19:15;7.53;;;3.25;;
3667;SDS011;24099;47.102;15.440;2023-01-04T11:21:44;8.10;;;3.97;;
3667;SDS011;24099;47.102;15.440;2023-01-04T11:24:16;7.63;;;3.83;;
3667;SDS011;24099;47.102;15.440;2023-01-04T11:26:44;4.68;;;3.20;;
3667;SDS011;24099;47.102;15.440;2023-01-04T11:29:16;5.05;;;3.03;;
3667;SDS011;24099;47.102;15.440;2023-01-04T11:31:56;4.88;;;2.67;;
3667;SDS011;24099;47.102;15.440;2023-01-04T11:34:44;4.05;;;2.25;;
3667;SDS011;24099;47.102;15.440;2023-01-04T11:37:26;4.07;;;2.85;;
3667;SDS011;24099;47.102;15.440;2023-01-04T11:45:39;6.43;;;2.45;;
3667;SDS011;24099;47.102;15.440;2023-01-04T11:48:17;5.57;;;2.40;;
3667;SDS011;24099;47.102;15.440;2023-01-04T11:50:45;3.85;;;2.67;;
3667;SDS011;24099;47.102;15.440;2023-01-04T11:53:26;3.10;;;2.50;;
3667;SDS011;24099;47.102;15.440;2023-01-04T11:58:40;2.65;;;1.95;;
3667;SDS011;24099;47.102;15.440;2023-01-04T12:01:19;2.70;;;2.30;;
3667;SDS011;24099;47.102;15.440;2023-01-04T12:03:48;3.63;;;2.60;;
3667;SDS011;24099;47.102;15.440;2023-01-04T12:06:17;4.28;;;2.08;;
3667;SDS011;24099;47.102;15.440;2023-01-04T12:08:46;4.75;;;2.33;;
3667;SDS011;24099;47.102;15.440;2023-01-04T12:11:19;3.47;;;2.35;;
3667;SDS011;24099;47.102;15.440;2023-01-04T12:13:51;2.70;;;2.30;;
3667;SDS011;24099;47.102;15.440;2023-01-04T12:16:22;2.75;;;1.77;;
3667;SDS011;24099;47.102;15.440;2023-01-04T12:19:08;3.97;;;2.63;;
3667;SDS011;24099;47.102;15.440;2023-01-04T12:21:41;1.48;;;1.15;;
3667;SDS011;24099;47.102;15.440;2023-01-04T12:24:13;3.42;;;2.38;;
3667;SDS011;24099;47.102;15.440;2023-01-04T12:26:44;3.38;;;1.83;;
3667;SDS011;24099;47.102;15.440;2023-01-04T12:47:41;3.17;;;2.13;;
3667;SDS011;24099;47.102;15.440;2023-01-04T12:50:30;1.48;;;1.35;;
3667;SDS011;24099;47.102;15.440;2023-01-04T12:56:16;1.70;;;1.30;;
3667;SDS011;24099;47.102;15.440;2023-01-04T13:01:34;1.88;;;1.55;;
3667;SDS011;24099;47.102;15.440;2023-01-04T13:04:27;2.40;;;1.88;;
3667;SDS011;24099;47.102;15.440;2023-01-04T13:07:07;2.90;;;1.50;;
3667;SDS011;24099;47.102;15.440;2023-01-04T13:09:40;2.90;;;1.92;;
3667;SDS011;24099;47.102;15.440;2023-01-04T13:12:17;4.10;;;1.92;;
3667;SDS011;24099;47.102;15.440;2023-01-04T13:15:01;3.75;;;2.28;;
3667;SDS011;24099;47.102;15.440;2023-01-04T13:17:36;1.70;;;1.60;;
3667;SDS011;24099;47.102;15.440;2023-01-04T13:20:13;2.42;;;1.67;;
3667;SDS011;24099;47.102;15.440;2023-01-04T13:22:45;2.97;;;2.20;;
3667;SDS011;24099;47.102;15.440;2023-01-04T13:25:17;1.85;;;1.67;;
3667;SDS011;24099;47.102;15.440;2023-01-04T13:27:56;1.67;;;1.50;;
3667;SDS011;24099;47.102;15.440;2023-01-04T13:30:29;4.18;;;2.70;;
3667;SDS011;24099;47.102;15.440;2023-01-04T13:33:06;2.42;;;1.83;;
3667;SDS011;24099;47.102;15.440;2023-01-04T13:35:36;2.10;;;1.67;;
3667;SDS011;24099;47.102;15.440;2023-01-04T13:38:08;3.10;;;1.73;;
3667;SDS011;24099;47.102;15.440;2023-01-04T13:40:42;1.20;;;1.10;;
3667;SDS011;24099;47.102;15.440;2023-01-04T13:43:16;2.65;;;1.73;;
3667;SDS011;24099;47.102;15.440;2023-01-04T13:46:05;2.75;;;1.67;;
3667;SDS011;24099;47.102;15.440;2023-01-04T13:48:43;1.02;;;1.00;;
3667;SDS011;24099;47.102;15.440;2023-01-04T13:51:15;1.33;;;1.15;;
3667;SDS011;24099;47.102;15.440;2023-01-04T13:53:52;1.35;;;1.13;;
3667;SDS011;24099;47.102;15.440;2023-01-04T13:56:23;2.53;;;1.80;;
3667;SDS011;24099;47.102;15.440;2023-01-04T13:58:52;1.88;;;1.35;;
3667;SDS011;24099;47.102;15.440;2023-01-04T14:01:21;2.63;;;1.15;;
3667;SDS011;24099;47.102;15.440;2023-01-04T14:03:52;3.15;;;1.02;;
3667;SDS011;24099;47.102;15.440;2023-01-04T14:06:25;1.40;;;1.02;;
3667;SDS011;24099;47.102;15.440;2023-01-04T14:09:00;1.77;;;1.45;;
3667;SDS011;24099;47.102;15.440;2023-01-04T14:11:32;1.50;;;1.40;;
3667;SDS011;24099;47.102;15.440;2023-01-04T14:14:28;1.52;;;1.30;;
3667;SDS011;24099;47.102;15.440;2023-01-04T14:17:22;1.67;;;1.17;;
3667;SDS011;24099;47.102;15.440;2023-01-04T14:19:55;1.00;;;1.00;;
3667;SDS011;24099;47.102;15.440;2023-01-04T14:28:16;1.13;;;0.90;;
3667;SDS011;24099;47.102;15.440;2023-01-04T14:30:46;1.55;;;1.17;;
3667;SDS011;24099;47.102;15.440;2023-01-04T14:33:16;0.88;;;0.88;;
3667;SDS011;24099;47.102;15.440;2023-01-04T14:35:45;1.50;;;0.80;;
3667;SDS011;24099;47.102;15.440;2023-01-04T14:38:27;3.28;;;0.88;;
3667;SDS011;24099;47.102;15.440;2023-01-04T14:40:56;1.38;;;1.27;;
3667;SDS011;24099;47.102;15.440;2023-01-04T14:43:36;2.28;;;1.20;;
3667;SDS011;24099;47.102;15.440;2023-01-04T14:46:09;3.13;;;1.17;;
3667;SDS011;24099;47.102;15.440;2023-01-04T14:48:36;1.23;;;0.90;;
3667;SDS011;24099;47.102;15.440;2023-01-04T14:51:04;2.10;;;1.40;;
3667;SDS011;24099;47.102;15.440;2023-01-04T14:53:34;1.02;;;1.00;;
3667;SDS011;24099;47.102;15.440;2023-01-04T14:56:02;1.33;;;0.95;;
3667;SDS011;24099;47.102;15.440;2023-01-04T14:58:29;0.73;;;0.73;;
3667;SDS011;24099;47.102;15.440;2023-01-04T15:00:57;2.55;;;1.45;;
3667;SDS011;24099;47.102;15.440;2023-01-04T15:03:25;3.92;;;1.25;;
3667;SDS011;24099;47.102;15.440;2023-01-04T15:05:52;0.65;;;0.65;;
3667;SDS011;24099;47.102;15.440;2023-01-04T15:08:20;1.15;;;1.00;;
3667;SDS011;24099;47.102;15.440;2023-01-04T15:10:49;3.33;;;1.33;;
3667;SDS011;24099;47.102;15.440;2023-01-04T15:13:17;1.50;;;1.08;;
3667;SDS011;24099;47.102;15.440;2023-01-04T15:15:44;1.20;;;1.00;;
3667;SDS011;24099;47.102;15.440;2023-01-04T15:18:12;1.45;;;1.00;;
3667;SDS011;24099;47.102;15.440;2023-01-04T15:20:42;1.58;;;1.10;;
3667;SDS011;24099;47.102;15.440;2023-01-04T15:23:09;0.98;;;0.80;;
3667;SDS011;24099;47.102;15.440;2023-01-04T15:25:37;0.70;;;0.70;;
3667;SDS011;24099;47.102;15.440;2023-01-04T15:28:07;2.03;;;0.80;;
3667;SDS011;24099;47.102;15.440;2023-01-04T15:30:34;1.40;;;0.93;;
3667;SDS011;24099;47.102;15.440;2023-01-04T15:33:06;1.25;;;1.15;;
3667;SDS011;24099;47.102;15.440;2023-01-04T15:35:33;1.17;;;1.08;;
3667;SDS011;24099;47.102;15.440;2023-01-04T15:38:01;1.45;;;1.13;;
3667;SDS011;24099;47.102;15.440;2023-01-04T15:40:28;1.17;;;0.98;;
3667;SDS011;24099;47.102;15.440;2023-01-04T15:42:56;0.90;;;0.90;;
3667;SDS011;24099;47.102;15.440;2023-01-04T15:45:24;3.88;;;1.90;;
3667;SDS011;24099;47.102;15.440;2023-01-04T15:47:54;4.90;;;1.95;;
3667;SDS011;24099;47.102;15.440;2023-01-04T15:50:27;2.33;;;1.88;;
3667;SDS011;24099;47.102;15.440;2023-01-04T15:52:55;3.25;;;2.13;;
3667;SDS011;24099;47.102;15.440;2023-01-04T15:55:23;5.47;;;2.47;;
3667;SDS011;24099;47.102;15.440;2023-01-04T15:57:51;3.58;;;1.40;;
3667;SDS011;24099;47.102;15.440;2023-01-04T16:00:19;1.65;;;1.45;;
3667;SDS011;24099;47.102;15.440;2023-01-04T16:02:48;1.27;;;1.08;;
3667;SDS011;24099;47.102;15.440;2023-01-04T16:05:15;2.25;;;1.40;;
3667;SDS011;24099;47.102;15.440;2023-01-04T16:07:45;3.70;;;1.40;;